Time;durP1;ratioP1;P1;durP2;ratioP2;P2;SDS_P1;SDS_P2;PMS_P1;PMS_P2;Temp;Humidity;BMP_temperature;BMP_pressure;BME280_temperature;BME280_humidity;BME280_pressure;Samples;Min_cycle;Max_cycle;Signal;HPM_P1;HPM_P2
2021/11/02 00:00:29;;;;;;;3.95;1.60;;;8.10;93.50;;;;;;2076087;28;20108;-90
2021/11/02 00:01:31;;;;;;;3.45;1.63;;;8.10;93.50;;;;;;2080331;28;20033;-90
2021/11/02 00:02:31;;;;;;;3.20;1.50;;;8.10;93.50;;;;;;2079427;28;20030;-90
2021/11/02 00:03:33;;;;;;;4.13;1.80;;;8.10;93.50;;;;;;2074977;28;20069;-90
2021/11/02 00:04:34;;;;;;;4.07;1.70;;;8.10;93.50;;;;;;2075773;28;20041;-90
2021/11/02 00:05:34;;;;;;;3.53;1.73;;;8.00;93.50;;;;;;2069690;28;20168;-90
2021/11/02 00:06:36;;;;;;;5.00;1.70;;;8.10;93.60;;;;;;2058377;28;20058;-90
2021/11/02 00:07:36;;;;;;;4.20;1.80;;;8.10;93.60;;;;;;2066312;28;20480;-89
2021/11/02 00:08:37;;;;;;;4.07;1.80;;;8.10;93.60;;;;;;2078430;28;20104;-90
2021/11/02 00:09:40;;;;;;;3.65;1.67;;;8.10;93.60;;;;;;2074899;28;20038;-90
2021/11/02 00:10:41;;;;;;;4.10;1.60;;;8.00;93.50;;;;;;2071187;28;20162;-90
2021/11/02 00:11:41;;;;;;;3.63;1.70;;;8.00;93.50;;;;;;2063377;28;20054;-90
2021/11/02 00:12:43;;;;;;;3.10;1.63;;;8.00;93.50;;;;;;2082879;28;20037;-90
2021/11/02 00:13:48;;;;;;;3.60;1.73;;;8.00;93.50;;;;;;2073652;28;20037;-90
2021/11/02 00:14:51;;;;;;;3.65;1.67;;;8.00;93.50;;;;;;2060796;28;20078;-90
2021/11/02 00:15:53;;;;;;;4.10;1.63;;;8.00;93.60;;;;;;2067578;28;20038;-90
2021/11/02 00:17:39;;;;;;;3.25;1.60;;;8.00;93.60;;;;;;2073164;28;20054;-90
2021/11/02 00:18:19;;;;;;;3.03;1.42;;;8.00;93.60;;;;;;2060609;28;20046;-90
2021/11/02 00:19:20;;;;;;;3.42;1.48;;;8.00;93.60;;;;;;2075008;28;20033;-89
2021/11/02 00:20:21;;;;;;;4.13;1.63;;;8.00;93.60;;;;;;2083005;28;20053;-90
2021/11/02 00:21:23;;;;;;;3.42;1.50;;;8.00;93.60;;;;;;2088659;28;20037;-90
2021/11/02 00:22:25;;;;;;;4.32;1.85;;;8.00;93.60;;;;;;2094809;28;20046;-90
2021/11/02 00:23:38;;;;;;;3.75;1.67;;;8.00;93.50;;;;;;2084515;28;20014;-90
2021/11/02 00:24:44;;;;;;;3.45;1.40;;;8.00;93.50;;;;;;2078235;28;20086;-89
2021/11/02 00:25:44;;;;;;;3.78;1.60;;;8.00;93.50;;;;;;2085425;28;20101;-82
2021/11/02 00:26:45;;;;;;;3.65;1.70;;;8.00;93.50;;;;;;2094408;28;20041;-83
2021/11/02 00:27:46;;;;;;;3.53;1.65;;;8.00;93.60;;;;;;2094566;28;20043;-86
2021/11/02 00:28:46;;;;;;;2.83;1.63;;;8.00;93.60;;;;;;2084908;28;20034;-89
2021/11/02 00:29:47;;;;;;;4.28;1.83;;;8.00;93.60;;;;;;2088182;28;20025;-85
2021/11/02 00:30:48;;;;;;;4.72;1.90;;;8.00;93.50;;;;;;2092750;28;20018;-88
2021/11/02 00:31:49;;;;;;;4.63;1.80;;;8.00;93.50;;;;;;2092117;28;20089;-89
2021/11/02 00:32:53;;;;;;;3.00;1.52;;;7.90;93.50;;;;;;2083727;28;20497;-89
2021/11/02 00:33:55;;;;;;;4.85;2.03;;;7.90;93.50;;;;;;2084364;28;20060;-90
2021/11/02 00:34:57;;;;;;;3.65;1.60;;;7.90;93.60;;;;;;2082655;28;20133;-90
2021/11/02 00:35:59;;;;;;;4.07;1.92;;;7.90;93.60;;;;;;2080147;28;20041;-90
2021/11/02 00:37:00;;;;;;;2.75;1.60;;;7.90;93.60;;;;;;2074508;28;20046;-90
2021/11/02 00:38:00;;;;;;;3.67;1.88;;;7.90;93.60;;;;;;2066326;28;20042;-90
2021/11/02 00:39:02;;;;;;;3.17;1.58;;;7.90;93.60;;;;;;2048930;28;20051;-90
2021/11/02 00:40:06;;;;;;;4.68;1.70;;;7.90;93.60;;;;;;2073936;28;20041;-90
2021/11/02 00:41:06;;;;;;;4.43;1.65;;;7.90;93.60;;;;;;2071224;28;20030;-90
2021/11/02 00:42:08;;;;;;;4.15;1.80;;;7.90;93.60;;;;;;2065784;28;20535;-90
2021/11/02 00:43:10;;;;;;;2.88;1.45;;;7.90;93.60;;;;;;2066082;28;20091;-90
2021/11/02 00:44:10;;;;;;;3.53;1.77;;;7.90;93.90;;;;;;2066136;28;20133;-90
2021/11/02 00:45:13;;;;;;;3.70;1.60;;;7.80;93.50;;;;;;2057722;28;20030;-90
2021/11/02 00:46:14;;;;;;;4.68;1.52;;;7.80;93.50;;;;;;2058324;28;20125;-90
2021/11/02 00:47:21;;;;;;;4.05;1.80;;;7.80;93.60;;;;;;2067223;28;20046;-91
2021/11/02 00:48:26;;;;;;;2.95;1.52;;;7.80;93.50;;;;;;2074296;28;20038;-90
2021/11/02 00:49:26;;;;;;;3.72;1.38;;;7.80;93.50;;;;;;2072378;28;20046;-91
2021/11/02 00:50:28;;;;;;;3.15;1.60;;;7.80;93.60;;;;;;2079156;28;20041;-89
2021/11/02 00:51:29;;;;;;;3.42;1.60;;;7.80;93.60;;;;;;2086897;28;20090;-90
2021/11/02 00:52:30;;;;;;;3.85;1.60;;;7.70;93.60;;;;;;2088726;28;20491;-90
2021/11/02 00:53:30;;;;;;;3.85;1.98;;;7.70;93.60;;;;;;2081776;28;20045;-90
2021/11/02 00:54:31;;;;;;;3.13;1.48;;;7.70;93.60;;;;;;2082426;28;20034;-90
2021/11/02 00:55:32;;;;;;;3.13;1.40;;;7.70;93.60;;;;;;2085320;28;20053;-91
2021/11/02 00:56:33;;;;;;;2.75;1.50;;;7.70;93.60;;;;;;2066055;28;20030;-90
2021/11/02 00:57:34;;;;;;;3.13;1.50;;;7.70;93.60;;;;;;2057845;28;20120;-90
2021/11/02 00:58:36;;;;;;;3.40;1.55;;;7.70;93.60;;;;;;2050216;28;20046;-90
2021/11/02 00:59:37;;;;;;;3.03;1.60;;;7.70;93.60;;;;;;2059574;28;20074;-90
2021/11/02 01:00:38;;;;;;;3.58;1.63;;;7.60;93.50;;;;;;2061415;28;20477;-91
2021/11/02 01:01:39;;;;;;;3.28;1.67;;;7.60;93.60;;;;;;2057031;28;20043;-91
2021/11/02 01:02:41;;;;;;;2.80;1.63;;;7.60;93.60;;;;;;2066506;28;20046;-91
2021/11/02 01:03:41;;;;;;;3.67;1.55;;;7.60;93.60;;;;;;2074504;28;20053;-89
2021/11/02 01:04:42;;;;;;;3.65;1.58;;;7.60;93.60;;;;;;2072902;28;20038;-90
2021/11/02 01:05:43;;;;;;;2.83;1.50;;;7.60;93.60;;;;;;2058011;28;20035;-90
2021/11/02 01:06:43;;;;;;;4.35;1.98;;;7.60;93.60;;;;;;2066421;28;20037;-90
2021/11/02 01:07:44;;;;;;;4.07;1.75;;;7.60;93.60;;;;;;2067727;28;20057;-91
2021/11/02 01:08:44;;;;;;;2.60;1.58;;;7.60;93.60;;;;;;2067080;28;20066;-89
2021/11/02 01:09:45;;;;;;;3.22;1.80;;;7.60;93.60;;;;;;2074016;28;20052;-91
2021/11/02 01:10:47;;;;;;;3.13;1.60;;;7.60;93.60;;;;;;2072847;28;20029;-90
2021/11/02 01:11:48;;;;;;;4.18;1.60;;;7.60;93.60;;;;;;2073566;28;20093;-91
2021/11/02 01:12:51;;;;;;;3.17;1.52;;;7.60;93.60;;;;;;2065800;28;20042;-90
2021/11/02 01:13:53;;;;;;;3.83;1.80;;;7.60;93.60;;;;;;2074093;28;20121;-90
2021/11/02 01:14:53;;;;;;;2.83;1.63;;;7.60;93.60;;;;;;2073881;28;20033;-90
2021/11/02 01:15:54;;;;;;;2.97;1.40;;;7.60;93.70;;;;;;2062047;28;20046;-90
2021/11/02 01:16:54;;;;;;;3.63;1.70;;;7.50;93.70;;;;;;2048609;28;20070;-90
2021/11/02 01:17:55;;;;;;;2.53;1.40;;;7.50;93.60;;;;;;2057903;28;20043;-89
2021/11/02 01:18:56;;;;;;;3.20;1.52;;;7.60;93.70;;;;;;2077520;28;20456;-90
2021/11/02 01:19:57;;;;;;;2.80;1.50;;;7.50;93.60;;;;;;2079442;28;20415;-90
2021/11/02 01:20:59;;;;;;;3.35;1.60;;;7.50;93.60;;;;;;2057859;28;20031;-90
2021/11/02 01:22:00;;;;;;;2.75;1.40;;;7.50;93.60;;;;;;2059003;28;20057;-90
2021/11/02 01:23:01;;;;;;;3.10;1.27;;;7.50;93.70;;;;;;2066273;28;20043;-91
2021/11/02 01:24:01;;;;;;;3.70;1.52;;;7.50;93.70;;;;;;2065742;28;20086;-90
2021/11/02 01:25:02;;;;;;;4.82;1.83;;;7.50;93.70;;;;;;2068310;28;20041;-90
2021/11/02 01:26:03;;;;;;;3.40;1.63;;;7.50;93.70;;;;;;2074799;28;20120;-90
2021/11/02 01:27:04;;;;;;;3.53;1.73;;;7.50;93.70;;;;;;2056724;28;20042;-89
2021/11/02 01:28:06;;;;;;;3.95;1.60;;;7.60;93.70;;;;;;2070056;28;20038;-89
2021/11/02 01:29:07;;;;;;;3.08;1.63;;;7.50;93.60;;;;;;2082666;28;20044;-89
2021/11/02 01:30:09;;;;;;;3.53;1.50;;;7.50;93.60;;;;;;2082507;28;20034;-90
2021/11/02 01:31:10;;;;;;;3.60;1.67;;;7.50;93.60;;;;;;2072943;28;20440;-90
2021/11/02 01:32:11;;;;;;;3.15;1.42;;;7.50;93.60;;;;;;2058563;28;20077;-90
2021/11/02 01:33:11;;;;;;;3.30;1.70;;;7.50;93.60;;;;;;2057858;28;20038;-90
2021/11/02 01:34:13;;;;;;;3.40;1.42;;;7.50;93.60;;;;;;2057952;28;20106;-90
2021/11/02 01:35:14;;;;;;;3.45;1.85;;;7.50;93.60;;;;;;2072722;28;20137;-90
2021/11/02 01:36:15;;;;;;;2.90;1.50;;;7.50;93.60;;;;;;2078149;28;20088;-90
2021/11/02 01:37:15;;;;;;;3.45;1.58;;;7.50;93.60;;;;;;2082115;28;20030;-91
2021/11/02 01:38:23;;;;;;;4.13;1.67;;;7.50;93.60;;;;;;2081070;28;20049;-89
2021/11/02 01:39:26;;;;;;;3.47;1.67;;;7.50;93.60;;;;;;2080774;28;20037;-89
2021/11/02 01:40:27;;;;;;;3.25;1.63;;;7.50;93.60;;;;;;2074260;28;20078;-90
2021/11/02 01:41:29;;;;;;;4.00;1.75;;;7.50;93.60;;;;;;2074072;28;20599;-90
2021/11/02 01:42:29;;;;;;;3.13;1.60;;;7.40;93.60;;;;;;2074450;28;20041;-90
2021/11/02 01:43:30;;;;;;;2.78;1.60;;;7.50;93.70;;;;;;2077704;28;20041;-90
2021/11/02 01:44:31;;;;;;;3.33;1.45;;;7.40;93.60;;;;;;2073357;28;20065;-89
2021/11/02 01:45:31;;;;;;;3.47;1.42;;;7.40;93.60;;;;;;2076941;28;20022;-90
2021/11/02 01:46:34;;;;;;;3.45;1.70;;;7.40;93.60;;;;;;2084036;28;20506;-90
2021/11/02 01:47:41;;;;;;;4.60;1.90;;;7.40;93.60;;;;;;2085409;28;20144;-90
2021/11/02 01:48:42;;;;;;;3.42;1.48;;;7.50;93.70;;;;;;2086489;28;20060;-90
2021/11/02 01:49:44;;;;;;;3.72;1.80;;;7.40;93.90;;;;;;2073709;28;20045;-91
2021/11/02 01:50:45;;;;;;;3.00;1.55;;;7.40;93.60;;;;;;2071945;28;20080;-90
2021/11/02 01:51:46;;;;;;;3.08;1.50;;;7.40;93.60;;;;;;2074022;28;20125;-91
2021/11/02 01:52:46;;;;;;;3.60;1.75;;;7.40;93.60;;;;;;2073263;28;20038;-90
2021/11/02 01:53:47;;;;;;;2.65;1.60;;;7.40;93.60;;;;;;2070562;28;20042;-91
2021/11/02 01:54:48;;;;;;;3.00;1.40;;;7.40;93.60;;;;;;2081892;28;20038;-91
2021/11/02 01:55:49;;;;;;;2.90;1.52;;;7.30;93.60;;;;;;2073850;28;20048;-90
2021/11/02 01:56:49;;;;;;;3.55;1.60;;;7.40;93.70;;;;;;2073660;28;20413;-90
2021/11/02 01:57:50;;;;;;;3.65;1.60;;;7.40;93.70;;;;;;2065124;28;20042;-92
2021/11/02 01:58:55;;;;;;;4.43;1.60;;;7.40;93.70;;;;;;2057347;28;20078;-90
2021/11/02 01:59:56;;;;;;;3.72;1.70;;;7.30;93.60;;;;;;2072932;28;20463;-90
2021/11/02 02:01:00;;;;;;;4.07;1.70;;;7.30;93.60;;;;;;2065683;28;20038;-90
2021/11/02 02:02:27;;;;;;;2.90;1.50;;;7.30;93.90;;;;;;2066963;28;20034;-91
2021/11/02 02:03:40;;;;;;;2.88;1.60;;;7.40;93.70;;;;;;2088468;28;20029;-85
2021/11/02 02:04:52;;;;;;;3.83;1.63;;;7.30;93.60;;;;;;2092143;28;20021;-85
2021/11/02 02:06:08;;;;;;;3.05;1.50;;;7.30;93.60;;;;;;2081740;28;20077;-90
2021/11/02 02:07:31;;;;;;;3.08;1.60;;;7.30;93.60;;;;;;2077349;28;20121;-89
2021/11/02 02:09:02;;;;;;;3.90;1.77;;;7.30;93.60;;;;;;2087760;28;20040;-89
2021/11/02 02:10:24;;;;;;;4.10;1.70;;;7.30;93.60;;;;;;2071242;28;20042;-89
2021/11/02 02:11:35;;;;;;;3.90;1.55;;;7.30;93.60;;;;;;2089445;28;20037;-89
2021/11/02 02:12:41;;;;;;;2.78;1.42;;;7.30;93.60;;;;;;2090549;28;20041;-90
2021/11/02 02:14:09;;;;;;;3.67;1.50;;;7.30;93.60;;;;;;2083834;28;20038;-89
2021/11/02 02:15:44;;;;;;;3.38;1.52;;;7.30;93.60;;;;;;2075812;28;20025;-90
2021/11/02 02:16:47;;;;;;;3.35;1.48;;;7.30;93.60;;;;;;2062328;28;20042;-90
2021/11/02 02:18:05;;;;;;;4.32;1.45;;;7.30;93.60;;;;;;2073564;28;20042;-90
2021/11/02 02:19:20;;;;;;;3.20;1.50;;;7.30;93.50;;;;;;2075446;28;20444;-90
2021/11/02 02:20:38;;;;;;;3.88;1.75;;;7.20;93.50;;;;;;2084666;28;20127;-90
2021/11/02 02:22:08;;;;;;;3.13;1.35;;;7.30;93.50;;;;;;2081915;28;20080;-89
2021/11/02 02:23:29;;;;;;;4.20;1.60;;;7.20;93.50;;;;;;2078079;28;20111;-90
2021/11/02 02:25:14;;;;;;;3.60;1.52;;;7.30;93.60;;;;;;2074893;28;20099;-90
2021/11/02 02:26:35;;;;;;;2.83;1.60;;;7.20;93.50;;;;;;2052181;28;20130;-90
2021/11/02 02:27:47;;;;;;;3.72;1.55;;;7.20;93.50;;;;;;2081756;28;20041;-90
2021/11/02 02:28:52;;;;;;;3.03;1.33;;;7.20;93.60;;;;;;2083462;28;20037;-90
2021/11/02 02:29:54;;;;;;;2.78;1.50;;;7.20;93.50;;;;;;2086623;28;20508;-90
2021/11/02 02:31:01;;;;;;;4.05;1.60;;;7.20;93.60;;;;;;2082385;28;20045;-90
2021/11/02 02:32:04;;;;;;;4.20;1.60;;;7.10;93.60;;;;;;2082317;28;20038;-90
2021/11/02 02:33:05;;;;;;;3.38;1.42;;;7.10;93.60;;;;;;2073714;28;20061;-90
2021/11/02 02:34:11;;;;;;;4.15;1.63;;;7.10;93.60;;;;;;2078720;28;20044;-89
2021/11/02 02:35:14;;;;;;;3.45;1.70;;;7.10;93.60;;;;;;2073633;28;20112;-90
2021/11/02 02:36:16;;;;;;;2.95;1.70;;;7.10;93.60;;;;;;2075519;28;20034;-90
2021/11/02 02:37:19;;;;;;;2.92;1.58;;;7.10;93.90;;;;;;2081480;28;20057;-90
2021/11/02 02:38:22;;;;;;;4.45;1.83;;;7.10;93.70;;;;;;2081534;28;20033;-90
2021/11/02 02:39:24;;;;;;;3.55;1.70;;;7.10;93.70;;;;;;2089026;28;20087;-89
2021/11/02 02:40:25;;;;;;;3.33;1.45;;;7.10;93.70;;;;;;2085707;28;20099;-90
2021/11/02 02:41:27;;;;;;;3.53;1.65;;;7.10;93.70;;;;;;2073492;28;20046;-90
2021/11/02 02:42:29;;;;;;;3.58;1.70;;;7.10;93.70;;;;;;2073935;28;20554;-90
2021/11/02 02:43:34;;;;;;;3.40;1.50;;;7.10;93.90;;;;;;2074614;28;20116;-88
2021/11/02 02:44:35;;;;;;;4.53;1.92;;;7.10;93.70;;;;;;2067078;28;20035;-90
2021/11/02 02:45:37;;;;;;;4.32;1.60;;;7.10;93.70;;;;;;2073535;28;20037;-91
2021/11/02 02:46:39;;;;;;;6.25;1.85;;;7.10;93.70;;;;;;2076032;28;20034;-90
2021/11/02 02:47:42;;;;;;;3.70;1.75;;;7.10;93.70;;;;;;2075783;28;20044;-91
2021/11/02 02:48:44;;;;;;;3.45;1.60;;;7.10;93.70;;;;;;2066754;28;20157;-89
2021/11/02 02:49:47;;;;;;;3.25;1.63;;;7.10;93.70;;;;;;2066522;28;20109;-90
2021/11/02 02:50:49;;;;;;;3.65;1.60;;;7.10;93.70;;;;;;2077188;28;20089;-90
2021/11/02 02:51:50;;;;;;;3.53;1.90;;;7.10;93.70;;;;;;2077386;28;20075;-90
2021/11/02 02:52:52;;;;;;;3.78;1.90;;;7.10;93.70;;;;;;2087585;28;20037;-90
2021/11/02 02:53:54;;;;;;;3.83;1.80;;;7.10;93.70;;;;;;2086855;28;20060;-90
2021/11/02 02:54:56;;;;;;;5.05;1.98;;;7.10;93.70;;;;;;2082654;28;20095;-90
2021/11/02 02:56:00;;;;;;;4.20;1.77;;;7.10;93.70;;;;;;2074624;28;20046;-90
2021/11/02 02:57:01;;;;;;;3.85;1.70;;;7.10;93.70;;;;;;2065785;28;20042;-89
2021/11/02 02:58:02;;;;;;;4.55;1.55;;;7.00;93.70;;;;;;2065823;28;20049;-89
2021/11/02 02:59:04;;;;;;;4.38;1.90;;;7.00;93.70;;;;;;2071400;28;20026;-90
2021/11/02 03:00:06;;;;;;;5.28;1.60;;;7.00;93.70;;;;;;2065747;28;20034;-90
2021/11/02 03:01:10;;;;;;;3.72;1.90;;;7.00;93.70;;;;;;2064139;28;20073;-89
2021/11/02 03:02:12;;;;;;;3.63;1.70;;;7.00;93.70;;;;;;2065821;28;20501;-91
2021/11/02 03:03:16;;;;;;;3.47;1.50;;;7.00;93.70;;;;;;2073013;28;20042;-89
2021/11/02 03:04:23;;;;;;;2.83;1.60;;;7.00;93.70;;;;;;2065029;28;20030;-90
2021/11/02 03:05:25;;;;;;;3.00;1.60;;;7.00;93.70;;;;;;2059389;28;20039;-90
2021/11/02 03:06:28;;;;;;;4.55;1.95;;;7.00;93.70;;;;;;2061166;28;20035;-90
2021/11/02 03:07:30;;;;;;;3.38;1.90;;;7.00;93.70;;;;;;2057392;28;20581;-91
2021/11/02 03:08:31;;;;;;;4.13;2.00;;;7.00;93.70;;;;;;2065617;28;20034;-90
2021/11/02 03:09:31;;;;;;;4.03;1.90;;;7.00;93.70;;;;;;2082990;28;20034;-90
2021/11/02 03:10:33;;;;;;;4.03;1.90;;;7.00;93.70;;;;;;2073690;28;20128;-91
2021/11/02 03:11:35;;;;;;;3.97;1.90;;;7.00;93.70;;;;;;2062572;28;20033;-90
2021/11/02 03:12:42;;;;;;;4.75;1.70;;;7.00;93.70;;;;;;2057699;28;20043;-91
2021/11/02 03:13:47;;;;;;;4.22;1.77;;;7.00;93.70;;;;;;2065740;28;20059;-90
2021/11/02 03:15:57;;;;;;;3.17;1.60;;;7.00;93.70;;;;;;2071523;28;20041;-90
2021/11/02 03:16:50;;;;;;;2.80;1.40;;;7.00;93.70;;;;;;2068702;28;20048;-90
2021/11/02 03:18:07;;;;;;;2.92;1.50;;;7.00;93.70;;;;;;2084283;28;20081;-90
2021/11/02 03:20:05;;;;;;;3.30;1.50;;;7.10;93.70;;;;;;2081523;28;20038;-91
2021/11/02 03:45:14;;;;;;;3.38;1.45;;;6.90;93.60;;;;;;2091213;28;20052;-91
2021/11/02 03:49:07;;;;;;;3.78;1.38;;;6.90;93.60;;;;;;2090872;28;20013;-81
2021/11/02 03:54:52;;;;;;;2.58;1.50;;;6.90;93.70;;;;;;2090161;28;19919;-85
2021/11/02 03:58:06;;;;;;;3.35;1.40;;;6.90;94.00;;;;;;2089971;28;20041;-91
2021/11/02 04:28:02;;;;;;;3.30;1.90;;;6.80;93.80;;;;;;2082561;28;20041;-91
2021/11/02 05:11:51;;;;;;;2.55;1.30;;;6.70;93.90;;;;;;2081740;28;20498;-91
2021/11/02 05:51:57;;;;;;;2.70;1.80;;;6.70;93.90;;;;;;2065755;28;20040;-91
2021/11/02 05:55:58;;;;;;;;;;;6.70;94.00;;;;;;2051120;28;20062;-90
2021/11/02 05:57:14;;;;;;;2.58;1.75;;;6.70;94.00;;;;;;2072764;28;19918;-91
2021/11/02 06:00:32;;;;;;;2.65;1.58;;;6.60;93.90;;;;;;2093310;28;20041;-92
2021/11/02 06:01:50;;;;;;;3.22;1.95;;;6.60;93.90;;;;;;2092587;28;20037;-92
2021/11/02 06:03:12;;;;;;;2.58;1.63;;;6.60;93.90;;;;;;2078660;28;20048;-92
2021/11/02 06:05:43;;;;;;;3.10;1.70;;;6.60;94.00;;;;;;2079432;28;20104;-92
2021/11/02 06:08:35;;;;;;;3.15;1.70;;;6.60;94.00;;;;;;2076689;28;20122;-91
2021/11/02 06:09:51;;;;;;;3.70;1.95;;;6.60;94.00;;;;;;2090642;28;20124;-91
2021/11/02 06:28:49;;;;;;;2.28;1.50;;;6.50;94.00;;;;;;2074335;28;20039;-91
2021/11/02 06:29:51;;;;;;;3.47;1.60;;;6.50;94.00;;;;;;2078008;28;20045;-90
2021/11/02 06:31:09;;;;;;;3.10;1.63;;;6.50;94.10;;;;;;2075461;28;20551;-91
2021/11/02 06:32:20;;;;;;;2.88;1.70;;;6.50;94.10;;;;;;2084853;28;20033;-92
2021/11/02 06:33:33;;;;;;;2.75;1.38;;;6.50;94.10;;;;;;2067727;28;20034;-91
2021/11/02 06:35:48;;;;;;;2.22;1.52;;;6.50;94.10;;;;;;2062465;28;20411;-90
2021/11/02 06:38:29;;;;;;;2.83;1.60;;;6.50;94.10;;;;;;2067791;28;20050;-90
2021/11/02 06:52:04;;;;;;;2.65;1.50;;;6.60;93.90;;;;;;2078222;28;20045;-91
2021/11/02 07:15:24;;;;;;;3.35;1.88;;;6.80;93.90;;;;;;2085121;28;20028;-91
2021/11/02 07:15:46;;;;;;;3.70;1.60;;;6.80;93.90;;;;;;2084687;28;20037;-90
2021/11/02 07:17:04;;;;;;;2.70;1.60;;;6.80;93.90;;;;;;2084362;28;20057;-89
2021/11/02 07:19:11;;;;;;;2.38;1.60;;;6.80;93.90;;;;;;2086296;28;20018;-87
2021/11/02 07:21:28;;;;;;;3.72;1.58;;;6.90;93.90;;;;;;2091455;28;20021;-90
2021/11/02 07:25:59;;;;;;;3.25;1.77;;;6.90;93.90;;;;;;2079845;28;20033;-91
2021/11/02 07:27:49;;;;;;;3.75;1.65;;;6.90;93.90;;;;;;2076362;28;20039;-92
2021/11/02 08:48:35;;;;;;;2.97;1.70;;;8.30;93.30;;;;;;2081401;28;20029;-92
2021/11/02 08:49:45;;;;;;;3.78;1.70;;;8.30;93.30;;;;;;2070948;28;20140;-93
2021/11/02 08:50:51;;;;;;;2.45;1.52;;;8.30;93.30;;;;;;2075629;28;20477;-93
2021/11/02 08:51:55;;;;;;;3.92;2.13;;;8.30;93.40;;;;;;2079183;28;20049;-92
2021/11/02 08:52:57;;;;;;;3.63;2.03;;;8.40;93.40;;;;;;2079139;28;20029;-94
2021/11/02 08:53:58;;;;;;;3.97;1.85;;;8.30;93.40;;;;;;2079747;28;20041;-92
2021/11/02 08:54:59;;;;;;;3.83;1.90;;;8.30;93.40;;;;;;2076101;28;20007;-88
2021/11/02 08:56:00;;;;;;;3.50;1.98;;;8.40;93.40;;;;;;2082417;28;20062;-90
2021/11/02 08:57:01;;;;;;;2.72;1.70;;;8.40;93.40;;;;;;2090439;28;20013;-86
2021/11/02 08:58:04;;;;;;;3.50;1.90;;;8.30;93.40;;;;;;2083448;28;20017;-90
2021/11/02 08:59:05;;;;;;;2.70;1.98;;;8.40;93.40;;;;;;2077618;28;20023;-92
2021/11/02 09:00:06;;;;;;;3.10;1.77;;;8.40;93.40;;;;;;2084599;28;20073;-84
2021/11/02 09:01:07;;;;;;;3.75;1.88;;;8.40;93.40;;;;;;2089550;28;20061;-91
2021/11/02 09:02:10;;;;;;;2.88;2.03;;;8.40;93.40;;;;;;2082363;28;20010;-84
2021/11/02 09:03:18;;;;;;;3.42;1.92;;;8.40;93.40;;;;;;2075424;28;20038;-86
2021/11/02 09:04:19;;;;;;;3.63;2.15;;;8.40;93.40;;;;;;2086125;28;20052;-93
2021/11/02 09:05:29;;;;;;;3.20;1.90;;;8.40;93.60;;;;;;2081776;28;20033;-93
2021/11/02 09:06:30;;;;;;;2.83;2.03;;;8.40;93.40;;;;;;2081428;28;20056;-92
2021/11/02 09:07:32;;;;;;;2.80;1.85;;;8.50;93.40;;;;;;2062795;28;20038;-91
2021/11/02 09:08:42;;;;;;;2.75;1.70;;;8.50;93.40;;;;;;2058383;28;20035;-91
2021/11/02 09:09:47;;;;;;;2.70;1.80;;;8.50;93.40;;;;;;2075437;28;20045;-92
2021/11/02 09:10:48;;;;;;;3.03;1.90;;;8.50;93.40;;;;;;2075990;28;20033;-92
2021/11/02 09:11:53;;;;;;;3.78;2.20;;;8.50;93.40;;;;;;2076920;28;20038;-92
2021/11/02 09:12:55;;;;;;;3.83;1.90;;;8.50;93.40;;;;;;2076124;28;20057;-92
2021/11/02 09:13:58;;;;;;;3.08;1.80;;;8.50;93.40;;;;;;2079286;28;20068;-91
2021/11/02 09:15:02;;;;;;;3.88;1.90;;;8.50;93.40;;;;;;2077081;28;20080;-93
2021/11/02 09:16:05;;;;;;;3.53;2.13;;;8.50;93.40;;;;;;2079151;28;20026;-92
2021/11/02 09:17:07;;;;;;;3.20;2.00;;;8.50;93.40;;;;;;2075140;28;20033;-91
2021/11/02 09:18:10;;;;;;;4.03;2.00;;;8.60;93.40;;;;;;2075017;28;20088;-92
2021/11/02 09:19:13;;;;;;;4.68;2.05;;;8.60;93.40;;;;;;2078131;28;20109;-92
2021/11/02 09:20:17;;;;;;;3.03;2.00;;;8.60;93.40;;;;;;2079704;28;20518;-91
2021/11/02 09:21:19;;;;;;;3.45;2.10;;;8.60;93.40;;;;;;2078803;28;20025;-91
2021/11/02 09:22:20;;;;;;;2.92;1.90;;;8.50;93.40;;;;;;2074682;28;20049;-91
2021/11/02 09:23:21;;;;;;;3.40;2.05;;;8.60;93.40;;;;;;2084372;28;20467;-92
2021/11/02 09:24:23;;;;;;;3.38;1.90;;;8.60;93.40;;;;;;2082794;28;20060;-92
2021/11/02 09:25:26;;;;;;;3.30;1.90;;;8.60;93.40;;;;;;2076256;28;20058;-91
2021/11/02 09:26:30;;;;;;;3.17;2.00;;;8.60;93.40;;;;;;2077722;28;20046;-92
2021/11/02 09:27:31;;;;;;;4.07;2.00;;;8.50;93.40;;;;;;2078861;28;20087;-92
2021/11/02 09:28:32;;;;;;;4.68;1.85;;;8.60;93.40;;;;;;2083560;28;20037;-92
2021/11/02 09:29:38;;;;;;;4.13;2.20;;;8.60;93.40;;;;;;2076126;28;20045;-92
2021/11/02 09:30:40;;;;;;;3.72;1.90;;;8.60;93.40;;;;;;2075091;28;20053;-91
2021/11/02 09:31:41;;;;;;;2.97;2.08;;;8.60;93.40;;;;;;2073315;28;20048;-91
2021/11/02 09:32:44;;;;;;;3.05;1.83;;;8.60;93.40;;;;;;2083235;28;20041;-91
2021/11/02 09:33:45;;;;;;;3.10;1.90;;;8.60;93.40;;;;;;2075237;28;20068;-90
2021/11/02 09:34:45;;;;;;;3.65;1.95;;;8.60;93.40;;;;;;2074923;28;20129;-91
2021/11/02 09:35:55;;;;;;;3.40;2.08;;;8.60;93.40;;;;;;2081328;28;20057;-91
2021/11/02 09:37:20;;;;;;;2.80;1.90;;;8.70;93.40;;;;;;2082169;28;20040;-90
2021/11/02 09:38:28;;;;;;;3.45;2.00;;;8.60;93.30;;;;;;2080225;28;20046;-93
2021/11/02 09:39:32;;;;;;;3.17;1.95;;;8.70;93.30;;;;;;2082438;28;20025;-91
2021/11/02 09:40:53;;;;;;;3.65;1.83;;;8.70;93.30;;;;;;2078397;28;20044;-91
2021/11/02 09:42:12;;;;;;;3.25;1.85;;;8.70;93.30;;;;;;2074780;28;20610;-90
2021/11/02 09:43:39;;;;;;;2.90;1.77;;;8.80;93.30;;;;;;2079814;28;20099;-93
2021/11/02 09:45:09;;;;;;;3.35;1.85;;;8.70;93.20;;;;;;2076162;28;20037;-93
2021/11/02 09:46:28;;;;;;;2.95;1.77;;;8.70;93.20;;;;;;2081506;28;20053;-92
2021/11/02 09:47:50;;;;;;;3.85;2.03;;;8.70;93.20;;;;;;2071189;28;20140;-93
2021/11/02 09:49:12;;;;;;;3.15;1.73;;;8.80;93.20;;;;;;2074980;28;20057;-91
2021/11/02 09:50:27;;;;;;;2.28;1.70;;;8.70;93.20;;;;;;2075929;28;20050;-92
2021/11/02 09:52:06;;;;;;;3.38;1.90;;;8.80;93.20;;;;;;2077854;28;20037;-93
2021/11/02 09:53:30;;;;;;;3.85;1.90;;;8.80;93.20;;;;;;2076002;28;20069;-92
2021/11/02 09:54:40;;;;;;;3.10;1.83;;;8.80;93.20;;;;;;2073476;28;20041;-92
2021/11/02 09:56:03;;;;;;;3.15;1.70;;;8.80;93.10;;;;;;2078962;28;20022;-92
2021/11/02 09:57:21;;;;;;;2.90;1.70;;;8.80;93.10;;;;;;2077473;28;20030;-93
2021/11/02 09:58:36;;;;;;;4.30;2.00;;;8.80;93.10;;;;;;2077884;28;20053;-92
2021/11/02 09:59:40;;;;;;;2.78;1.83;;;8.90;93.10;;;;;;2077833;28;20030;-91
2021/11/02 10:00:59;;;;;;;3.40;1.90;;;8.80;93.10;;;;;;2080382;28;20048;-91
2021/11/02 10:02:38;;;;;;;3.28;2.15;;;8.80;93.10;;;;;;2078238;28;20068;-91
2021/11/02 10:04:03;;;;;;;3.88;2.20;;;8.80;93.10;;;;;;2076503;28;20137;-93
2021/11/02 10:05:24;;;;;;;3.92;2.10;;;8.80;93.20;;;;;;2076086;28;20034;-91
2021/11/02 10:06:32;;;;;;;3.20;1.95;;;8.80;93.10;;;;;;2076992;28;20428;-93
2021/11/02 10:08:23;;;;;;;3.10;2.00;;;8.80;93.20;;;;;;2078053;28;20037;-91
2021/11/02 10:10:07;;;;;;;3.22;2.10;;;8.80;93.20;;;;;;2083147;28;20113;-92
2021/11/02 10:11:23;;;;;;;3.67;2.10;;;8.80;93.20;;;;;;2076550;28;20230;-83
2021/11/02 10:12:53;;;;;;;3.55;2.05;;;8.80;93.20;;;;;;2075508;28;20144;-92
2021/11/02 10:14:08;;;;;;;3.08;2.03;;;8.80;93.20;;;;;;2059168;28;20042;-92
2021/11/02 10:15:41;;;;;;;2.60;1.77;;;8.80;93.20;;;;;;2070273;28;20887;-92
2021/11/02 10:17:08;;;;;;;3.70;2.30;;;8.80;93.20;;;;;;2084675;28;20080;-92
2021/11/02 10:18:20;;;;;;;2.90;2.00;;;8.80;93.20;;;;;;2079855;28;20045;-92
2021/11/02 10:19:55;;;;;;;3.10;2.20;;;8.80;93.20;;;;;;2075957;28;20424;-92
2021/11/02 10:21:03;;;;;;;3.22;2.20;;;8.90;93.20;;;;;;2088168;28;20043;-92
2021/11/02 10:22:24;;;;;;;2.97;2.05;;;8.90;93.20;;;;;;2082788;28;20032;-91
2021/11/02 10:23:50;;;;;;;3.30;2.05;;;8.90;93.20;;;;;;2084859;28;20072;-91
2021/11/02 10:25:04;;;;;;;3.20;2.03;;;9.00;93.20;;;;;;2074687;28;20075;-93
2021/11/02 10:26:23;;;;;;;3.92;2.20;;;8.90;93.20;;;;;;2068231;28;20041;-93
2021/11/02 10:27:51;;;;;;;4.70;2.63;;;9.00;93.20;;;;;;2086417;28;20128;-93
2021/11/02 10:29:52;;;;;;;3.25;2.40;;;9.00;93.20;;;;;;2087795;28;20048;-93
2021/11/02 10:31:19;;;;;;;3.28;2.10;;;9.00;93.10;;;;;;2088931;28;20442;-92
2021/11/02 10:32:24;;;;;;;3.95;2.17;;;9.00;93.10;;;;;;2092079;28;20083;-92
2021/11/02 10:33:34;;;;;;;3.50;2.20;;;9.00;93.40;;;;;;2075992;28;20057;-93
2021/11/02 10:34:48;;;;;;;3.83;2.45;;;9.00;93.10;;;;;;2075275;28;20041;-95
2021/11/02 10:36:06;;;;;;;3.78;2.30;;;9.10;93.20;;;;;;2082844;28;20116;-93
2021/11/02 10:37:26;;;;;;;4.57;2.70;;;9.10;93.20;;;;;;2090098;28;20021;-91
2021/11/02 10:38:49;;;;;;;4.57;2.58;;;9.10;93.20;;;;;;2083310;28;20101;-93
2021/11/02 10:40:01;;;;;;;5.07;2.60;;;9.10;93.20;;;;;;2073383;28;20030;-93
2021/11/02 10:41:07;;;;;;;3.60;2.60;;;9.10;93.10;;;;;;2083142;28;20014;-81
2021/11/02 10:42:13;;;;;;;4.05;2.40;;;9.20;93.10;;;;;;2077041;28;20006;-89
2021/11/02 10:43:53;;;;;;;4.60;2.53;;;9.20;93.10;;;;;;2085030;28;20029;-91
2021/11/02 10:45:00;;;;;;;3.45;2.40;;;9.20;93.10;;;;;;2092440;28;20018;-88
2021/11/02 10:46:07;;;;;;;3.10;2.20;;;9.30;93.10;;;;;;2085287;28;20122;-88
2021/11/02 10:47:19;;;;;;;3.97;2.45;;;9.30;93.10;;;;;;2084540;28;20101;-88
2021/11/02 10:48:30;;;;;;;4.35;2.50;;;9.30;93.10;;;;;;2086163;28;20038;-91
2021/11/02 10:49:36;;;;;;;3.75;2.60;;;9.30;93.10;;;;;;2081986;28;20029;-91